createdAt,value
2023-03-13T00:00:07.244Z,30.45
2023-03-13T00:02:35.475Z,25.55
2023-03-13T00:05:03.737Z,30.58
2023-03-13T00:07:32.282Z,30.08
2023-03-13T00:10:00.566Z,30.42
2023-03-13T00:12:28.932Z,36.13
2023-03-13T00:14:57.224Z,35.85
2023-03-13T00:17:25.513Z,42.92
2023-03-13T00:19:53.848Z,52.88
2023-03-13T00:22:22.143Z,41.42
2023-03-13T00:24:50.413Z,39.58
2023-03-13T00:27:18.590Z,38.25
2023-03-13T00:29:46.781Z,33.58
2023-03-13T00:32:15.121Z,40.22
2023-03-13T00:34:43.424Z,29.17
2023-03-13T00:37:11.743Z,22.60
2023-03-13T00:39:40.115Z,193.23
2023-03-13T00:42:08.407Z,82.35
2023-03-13T00:44:36.698Z,34.40
2023-03-13T00:47:04.956Z,51.25
2023-03-13T00:49:33.318Z,58.33
2023-03-13T00:52:01.557Z,54.08
2023-03-13T00:54:29.968Z,53.40
2023-03-13T00:56:58.118Z,52.97
2023-03-13T00:59:26.662Z,51.72
2023-03-13T01:01:54.845Z,48.35
2023-03-13T01:04:23.115Z,66.20
2023-03-13T01:06:51.597Z,58.65
2023-03-13T01:09:20.266Z,57.28
2023-03-13T01:11:48.541Z,52.38
2023-03-13T01:14:19.555Z,45.58
2023-03-13T01:16:48.147Z,42.07
2023-03-13T01:19:17.470Z,39.08
2023-03-13T01:21:47.296Z,48.13
2023-03-13T01:24:15.738Z,74.05
2023-03-13T01:26:45.037Z,53.13
2023-03-13T01:29:13.410Z,72.68
2023-03-13T01:31:41.781Z,50.63
2023-03-13T01:34:12.128Z,56.13
2023-03-13T01:36:40.432Z,58.40
2023-03-13T01:39:08.754Z,58.85
2023-03-13T01:41:38.591Z,61.20
2023-03-13T01:44:20.305Z,37.83
2023-03-13T01:46:49.279Z,56.63
2023-03-13T01:49:33.710Z,56.28
2023-03-13T01:52:23.240Z,62.33
2023-03-13T01:55:06.265Z,47.63
2023-03-13T01:57:51.751Z,49.83
2023-03-13T02:00:27.388Z,45.53
2023-03-13T02:02:58.842Z,73.05
2023-03-13T02:05:29.448Z,308.55
2023-03-13T02:08:03.230Z,127.28
2023-03-13T02:10:34.593Z,311.50
2023-03-13T02:13:04.299Z,438.67
2023-03-13T02:15:32.858Z,258.70
2023-03-13T02:18:01.364Z,76.30
2023-03-13T02:20:29.731Z,37.33
2023-03-13T02:23:56.562Z,47.47
2023-03-13T02:26:25.026Z,46.90
2023-03-13T02:28:53.312Z,33.75
2023-03-13T02:31:22.360Z,38.67
2023-03-13T02:33:50.708Z,104.70
2023-03-13T02:36:21.480Z,260.17
2023-03-13T02:39:04.904Z,522.13
2023-03-13T02:41:35.324Z,464.48
2023-03-13T02:44:03.690Z,353.52
2023-03-13T02:46:32.022Z,83.72
2023-03-13T02:49:17.013Z,65.10
2023-03-13T02:51:46.264Z,133.73
2023-03-13T02:54:30.864Z,437.53
2023-03-13T02:57:03.739Z,404.63
2023-03-13T02:59:32.574Z,79.82
2023-03-13T03:02:00.907Z,49.38
2023-03-13T03:04:29.174Z,34.05
2023-03-13T03:06:58.420Z,29.77
2023-03-13T03:09:26.636Z,30.13
2023-03-13T03:11:59.384Z,29.02
2023-03-13T03:14:30.229Z,30.90
2023-03-13T03:16:58.827Z,37.53
2023-03-13T03:19:28.125Z,39.75
2023-03-13T03:21:56.556Z,29.98
2023-03-13T03:24:24.819Z,34.03
2023-03-13T03:26:53.119Z,29.30
2023-03-13T03:29:26.866Z,30.67
2023-03-13T03:31:56.693Z,30.90
2023-03-13T03:34:25.396Z,39.20
2023-03-13T03:36:54.204Z,43.63
2023-03-13T03:39:22.439Z,37.97
2023-03-13T03:41:50.886Z,45.63
2023-03-13T03:44:19.318Z,42.80
2023-03-13T03:46:54.407Z,34.28
2023-03-13T03:49:24.342Z,46.42
2023-03-13T03:51:52.941Z,38.67
2023-03-13T03:54:27.266Z,48.53
2023-03-13T03:56:56.242Z,31.33
2023-03-13T03:59:24.373Z,29.48
2023-03-13T04:02:02.835Z,27.58
2023-03-13T04:04:32.476Z,40.55
2023-03-13T04:07:11.378Z,40.22
2023-03-13T04:09:41.060Z,36.70
2023-03-13T04:12:12.793Z,53.90
2023-03-13T04:14:44.586Z,52.13
2023-03-13T04:17:15.496Z,34.38
2023-03-13T04:19:45.323Z,39.67
2023-03-13T04:22:13.801Z,27.13
2023-03-13T04:24:48.182Z,38.67
2023-03-13T04:27:16.701Z,91.85
2023-03-13T04:29:46.933Z,31.13
2023-03-13T04:32:42.292Z,57.50
2023-03-13T04:35:26.409Z,48.50
2023-03-13T04:38:14.554Z,67.57
2023-03-13T04:40:49.062Z,135.43
2023-03-13T04:43:33.943Z,67.32
2023-03-13T04:46:28.368Z,29.88
2023-03-13T04:49:35.128Z,34.30
2023-03-13T04:52:21.025Z,34.78
2023-03-13T04:55:12.147Z,34.03
2023-03-13T04:57:57.340Z,49.63
2023-03-13T05:00:48.139Z,37.72
2023-03-13T05:03:39.115Z,47.55
2023-03-13T05:06:17.885Z,47.00
2023-03-13T05:09:07.734Z,40.65
2023-03-13T05:11:54.834Z,70.38
2023-03-13T05:14:46.089Z,51.88
2023-03-13T05:17:43.187Z,52.33
2023-03-13T05:20:29.546Z,67.28
2023-03-13T05:23:11.987Z,42.95
2023-03-13T05:26:15.309Z,48.40
2023-03-13T05:29:02.297Z,47.40
2023-03-13T05:31:49.145Z,51.50
2023-03-13T05:34:37.398Z,43.25
2023-03-13T05:37:12.923Z,37.95
2023-03-13T05:40:02.178Z,41.60
2023-03-13T05:42:52.865Z,33.80
2023-03-13T05:45:44.367Z,40.55
2023-03-13T05:48:25.133Z,46.60
2023-03-13T05:51:25.357Z,47.30
2023-03-13T05:54:13.754Z,37.53
2023-03-13T05:57:21.973Z,31.85
2023-03-13T06:00:08.769Z,30.92
2023-03-13T06:02:54.389Z,30.27
2023-03-13T06:05:30.213Z,30.88
2023-03-13T06:07:59.222Z,26.52
2023-03-13T06:10:27.860Z,36.75
2023-03-13T06:12:56.993Z,33.97
2023-03-13T06:15:29.668Z,35.03
2023-03-13T06:18:03.623Z,48.08
2023-03-13T06:20:32.143Z,43.95
2023-03-13T06:23:00.383Z,44.00
2023-03-13T06:25:28.801Z,44.42
2023-03-13T06:27:57.062Z,46.78
2023-03-13T06:30:25.231Z,33.83
2023-03-13T06:32:53.768Z,31.60
2023-03-13T06:35:22.081Z,39.97
2023-03-13T06:37:50.381Z,38.17
2023-03-13T06:40:18.926Z,29.67
2023-03-13T06:42:47.390Z,38.17
2023-03-13T06:45:15.856Z,40.30
2023-03-13T06:47:44.126Z,39.92
2023-03-13T06:50:12.680Z,41.63
2023-03-13T06:52:44.152Z,56.05
2023-03-13T06:55:13.621Z,47.25
2023-03-13T06:57:42.291Z,33.65
2023-03-13T07:00:12.339Z,41.58
2023-03-13T07:02:40.710Z,42.28
2023-03-13T07:05:09.525Z,45.60
2023-03-13T07:07:37.852Z,42.42
2023-03-13T07:10:06.620Z,39.35
2023-03-13T07:12:36.428Z,51.72
2023-03-13T07:15:05.822Z,59.30
2023-03-13T07:17:34.250Z,53.50
2023-03-13T07:20:02.898Z,64.30
2023-03-13T07:22:31.493Z,52.30
2023-03-13T07:24:59.879Z,61.08
2023-03-13T07:27:28.140Z,53.35
2023-03-13T07:29:56.759Z,55.38
2023-03-13T07:32:25.395Z,58.20
2023-03-13T07:34:53.692Z,71.15
2023-03-13T07:37:21.794Z,55.38
2023-03-13T07:39:50.270Z,58.13
2023-03-13T07:42:18.624Z,72.93
2023-03-13T07:44:47.269Z,72.57
2023-03-13T07:47:15.456Z,86.20
2023-03-13T07:49:44.844Z,62.80
2023-03-13T07:52:13.945Z,75.97
2023-03-13T07:54:42.312Z,67.25
2023-03-13T07:57:10.707Z,68.18
2023-03-13T07:59:39.076Z,55.92
2023-03-13T08:02:09.797Z,56.08
2023-03-13T08:04:38.218Z,65.80
2023-03-13T08:07:12.833Z,46.42
2023-03-13T08:09:41.130Z,49.83
2023-03-13T08:12:10.282Z,66.57
2023-03-13T08:14:38.635Z,81.90
2023-03-13T08:17:06.977Z,56.13
2023-03-13T08:19:35.223Z,67.03
2023-03-13T08:22:03.829Z,55.03
2023-03-13T08:24:32.132Z,53.80
2023-03-13T08:27:00.532Z,51.42
2023-03-13T08:29:28.907Z,58.47
2023-03-13T08:31:57.505Z,46.70
2023-03-13T08:34:25.765Z,54.15
2023-03-13T08:36:54.116Z,37.25
2023-03-13T08:39:22.427Z,45.00
2023-03-13T08:41:51.038Z,53.50
2023-03-13T08:44:20.787Z,57.72
2023-03-13T08:46:48.978Z,93.43
2023-03-13T08:49:17.995Z,55.33
2023-03-13T08:51:46.577Z,37.65
2023-03-13T08:54:14.877Z,61.03
2023-03-13T08:56:43.334Z,41.15
2023-03-13T08:59:11.665Z,45.63
2023-03-13T09:01:39.966Z,31.50
2023-03-13T09:04:08.551Z,34.35
2023-03-13T09:06:38.568Z,36.15
2023-03-13T09:09:08.117Z,39.90
2023-03-13T09:11:38.320Z,30.75
2023-03-13T09:14:07.935Z,36.78
2023-03-13T09:16:36.383Z,37.13
2023-03-13T09:19:04.456Z,35.88
2023-03-13T09:21:34.912Z,40.88
2023-03-13T09:24:03.348Z,39.00
2023-03-13T09:26:31.562Z,33.45
2023-03-13T09:29:00.018Z,30.13
2023-03-13T09:31:31.086Z,37.40
2023-03-13T09:34:00.311Z,37.33
2023-03-13T09:36:29.092Z,31.20
2023-03-13T09:38:59.636Z,41.03
2023-03-13T09:41:38.791Z,28.40
2023-03-13T09:44:12.027Z,41.90
2023-03-13T09:47:10.178Z,30.42
2023-03-13T09:49:47.279Z,34.00
2023-03-13T09:52:15.434Z,35.42
2023-03-13T09:54:59.099Z,32.78
2023-03-13T09:57:39.744Z,85.18
2023-03-13T10:00:18.577Z,59.53
2023-03-13T10:02:52.609Z,53.85
2023-03-13T10:05:27.145Z,124.10
2023-03-13T10:08:20.856Z,50.78
2023-03-13T10:10:54.979Z,67.90
2023-03-13T10:13:49.565Z,40.92
2023-03-13T10:16:33.327Z,39.58
2023-03-13T10:19:14.555Z,29.83
2023-03-13T10:21:45.616Z,29.85
2023-03-13T10:24:40.808Z,56.90
2023-03-13T10:27:14.480Z,109.22
2023-03-13T10:42:34.120Z,48.17
2023-03-13T10:45:05.812Z,48.00
2023-03-13T10:47:35.657Z,44.03
2023-03-13T10:50:05.661Z,37.00
2023-03-13T10:52:45.681Z,23.98
2023-03-13T10:55:25.345Z,57.70
2023-03-13T10:57:57.785Z,38.22
2023-03-13T11:00:36.744Z,50.63
2023-03-13T11:03:27.040Z,40.38
2023-03-13T11:06:03.818Z,57.42
2023-03-13T11:08:37.005Z,28.65
2023-03-13T11:11:11.530Z,39.95
2023-03-13T11:13:44.839Z,42.63
2023-03-13T11:16:19.360Z,27.10
2023-03-13T11:19:03.089Z,46.85
2023-03-13T11:21:45.533Z,42.72
2023-03-13T11:24:40.930Z,32.95
2023-03-13T11:27:29.799Z,27.40
2023-03-13T11:30:16.253Z,28.45
2023-03-13T11:33:06.066Z,31.45
2023-03-13T11:35:51.304Z,30.10
2023-03-13T11:38:40.414Z,34.92
2023-03-13T11:41:11.389Z,36.88
2023-03-13T11:43:51.500Z,34.10
2023-03-13T11:46:49.730Z,42.70
2023-03-13T11:49:52.435Z,46.25
2023-03-13T11:52:29.904Z,50.10
2023-03-13T11:54:58.058Z,41.63
2023-03-13T11:57:31.162Z,49.17
2023-03-13T12:00:08.329Z,41.17
2023-03-13T12:02:45.384Z,41.25
2023-03-13T12:05:18.169Z,37.92
2023-03-13T12:08:03.199Z,37.03
2023-03-13T12:10:39.948Z,29.73
2023-03-13T12:13:28.819Z,39.15
2023-03-13T12:16:07.043Z,30.90
2023-03-13T12:18:43.609Z,30.33
2023-03-13T12:21:30.865Z,40.38
2023-03-13T12:24:21.289Z,37.58
2023-03-13T12:26:57.375Z,35.65
2023-03-13T12:29:34.955Z,43.15
2023-03-13T12:32:15.368Z,35.83
2023-03-13T12:34:49.603Z,31.35
2023-03-13T12:37:42.586Z,44.00
2023-03-13T12:40:45.855Z,44.95
2023-03-13T12:43:26.330Z,36.28
2023-03-13T12:46:25.636Z,42.85
2023-03-13T12:48:59.926Z,45.08
2023-03-13T12:51:46.601Z,34.38
2023-03-13T12:54:48.936Z,41.70
2023-03-13T12:57:41.743Z,33.10
2023-03-13T13:00:22.787Z,32.63
2023-03-13T13:03:30.519Z,43.78
2023-03-13T13:06:09.783Z,36.08
2023-03-13T13:08:48.702Z,38.70
2023-03-13T13:11:35.154Z,47.15
2023-03-13T13:14:18.024Z,32.78
2023-03-13T13:16:58.902Z,43.15
2023-03-13T13:19:27.135Z,30.88
2023-03-13T13:22:32.822Z,39.78
2023-03-13T13:25:02.376Z,41.97
2023-03-13T13:27:36.646Z,42.55
2023-03-13T13:30:20.231Z,46.88
2023-03-13T13:33:20.925Z,38.08
2023-03-13T13:36:23.310Z,31.70
2023-03-13T13:41:19.846Z,33.83
2023-03-13T13:43:50.265Z,37.67
2023-03-13T13:46:27.685Z,34.13
2023-03-13T13:49:08.245Z,32.38
2023-03-13T13:51:40.937Z,38.33
2023-03-13T13:54:30.565Z,55.25
2023-03-13T13:57:28.346Z,25.35
2023-03-13T14:00:18.813Z,40.40
2023-03-13T14:02:55.809Z,26.92
2023-03-13T14:05:34.189Z,27.38
2023-03-13T14:08:30.950Z,29.70
2023-03-13T14:11:23.910Z,37.78
2023-03-13T14:14:11.903Z,41.15
2023-03-13T14:16:43.553Z,31.42
2023-03-13T14:19:43.024Z,40.92
2023-03-13T14:22:12.699Z,32.03
2023-03-13T14:24:41.522Z,30.88
2023-03-13T14:27:20.381Z,26.50
2023-03-13T14:30:06.805Z,31.23
2023-03-13T14:32:35.395Z,30.42
2023-03-13T14:35:06.035Z,42.10
2023-03-13T14:37:44.348Z,37.00
2023-03-13T14:40:30.377Z,29.63
2023-03-13T14:43:03.624Z,41.80
2023-03-13T14:45:34.999Z,42.05
2023-03-13T14:48:25.333Z,42.95
2023-03-13T14:51:14.130Z,27.73
2023-03-13T14:53:55.233Z,39.00
2023-03-13T14:56:36.394Z,30.35
2023-03-13T14:59:25.667Z,31.23
2023-03-13T15:02:16.194Z,39.03
2023-03-13T15:04:56.500Z,36.58
2023-03-13T15:07:25.703Z,37.47
2023-03-13T15:09:54.702Z,37.13
2023-03-13T15:12:24.368Z,35.00
2023-03-13T15:14:53.410Z,37.15
2023-03-13T15:17:23.224Z,37.00
2023-03-13T15:19:59.297Z,32.20
2023-03-13T15:22:38.001Z,34.83
2023-03-13T15:25:26.447Z,28.50
2023-03-13T15:27:57.602Z,30.35
2023-03-13T15:30:26.196Z,29.73
2023-03-13T15:32:54.757Z,35.90
2023-03-13T15:35:34.212Z,52.03
2023-03-13T15:38:03.598Z,35.30
2023-03-13T15:40:32.087Z,30.95
2023-03-13T15:43:00.391Z,42.10
2023-03-13T15:45:28.792Z,32.35
2023-03-13T15:47:57.079Z,39.78
2023-03-13T15:50:26.707Z,27.95
2023-03-13T15:52:54.974Z,42.10
2023-03-13T15:55:30.123Z,63.28
2023-03-13T15:57:58.474Z,46.10
2023-03-13T16:00:28.245Z,38.03
2023-03-13T16:02:56.552Z,32.42
2023-03-13T16:05:26.202Z,34.92
2023-03-13T16:07:54.536Z,50.20
2023-03-13T16:10:29.207Z,42.97
2023-03-13T16:12:57.478Z,47.22
2023-03-13T16:15:25.751Z,34.45
2023-03-13T16:17:53.950Z,45.47
2023-03-13T16:20:23.910Z,34.47
2023-03-13T16:22:53.662Z,47.63
2023-03-13T16:25:23.246Z,48.05
2023-03-13T16:27:51.707Z,52.50
2023-03-13T16:30:24.328Z,81.05
2023-03-13T16:32:52.733Z,63.65
2023-03-13T16:35:21.173Z,48.35
2023-03-13T16:37:49.656Z,51.60
2023-03-13T16:40:21.580Z,57.67
2023-03-13T16:42:49.929Z,51.10
2023-03-13T16:56:54.403Z,31.88
2023-03-13T16:59:22.688Z,31.55
2023-03-13T17:01:51.058Z,38.08
2023-03-13T17:04:19.353Z,28.77
2023-03-13T17:06:47.715Z,36.63
2023-03-13T17:13:10.825Z,43.92
2023-03-13T17:15:39.205Z,42.40
2023-03-13T17:18:07.680Z,34.40
2023-03-13T17:20:36.084Z,48.10
2023-03-13T17:23:38.178Z,38.67
2023-03-13T17:28:40.214Z,37.00
2023-03-13T17:35:04.618Z,46.42
2023-03-13T17:37:35.882Z,37.30
2023-03-13T17:40:10.857Z,38.10
2023-03-13T17:42:39.110Z,33.53
2023-03-13T17:45:07.984Z,47.35
2023-03-13T17:47:36.263Z,34.50
2023-03-13T17:50:14.004Z,48.03
2023-03-13T17:52:42.295Z,62.80
2023-03-13T17:55:10.960Z,46.50
2023-03-13T17:57:39.841Z,44.38
2023-03-13T18:00:34.373Z,23.70
2023-03-13T18:03:02.653Z,42.35
2023-03-13T18:05:31.181Z,36.60
2023-03-13T18:07:59.441Z,52.33
2023-03-13T18:10:30.404Z,53.15
2023-03-13T18:12:58.835Z,47.83
2023-03-13T18:15:27.495Z,38.58
2023-03-13T18:17:55.676Z,59.15
2023-03-13T18:20:31.047Z,41.45
2023-03-13T18:22:59.695Z,44.92
2023-03-13T18:25:29.227Z,55.53
2023-03-13T18:27:57.507Z,36.17
2023-03-13T18:30:27.318Z,54.92
2023-03-13T18:32:55.712Z,47.50
2023-03-13T18:35:23.881Z,58.92
2023-03-13T18:37:52.243Z,51.78
2023-03-13T18:40:23.849Z,81.63
2023-03-13T18:42:52.239Z,50.90
2023-03-13T18:45:23.886Z,65.03
2023-03-13T18:47:52.253Z,70.10
2023-03-13T18:50:23.283Z,55.30
2023-03-13T18:52:52.946Z,54.27
2023-03-13T18:55:21.710Z,57.67
2023-03-13T18:57:50.397Z,70.78
2023-03-13T19:00:25.776Z,79.63
2023-03-13T19:02:54.150Z,71.07
2023-03-13T19:05:23.102Z,84.60
2023-03-13T19:07:51.606Z,67.55
2023-03-13T19:10:31.122Z,80.20
2023-03-13T19:12:59.564Z,68.28
2023-03-13T19:15:31.222Z,60.15
2023-03-13T19:18:03.040Z,96.05
2023-03-13T19:20:31.856Z,93.50
2023-03-13T19:23:00.298Z,79.38
2023-03-13T19:25:29.125Z,48.03
2023-03-13T19:27:57.461Z,96.20
2023-03-13T19:30:26.894Z,94.05
2023-03-13T19:32:55.220Z,62.38
2023-03-13T19:35:23.634Z,44.13
2023-03-13T19:37:51.733Z,55.85
2023-03-13T19:40:23.142Z,80.60
2023-03-13T19:42:54.299Z,96.63
2023-03-13T19:45:22.694Z,90.38
2023-03-13T19:47:50.942Z,71.05
2023-03-13T19:50:25.071Z,108.00
2023-03-13T19:52:53.342Z,57.67
2023-03-13T19:55:21.715Z,57.72
2023-03-13T19:57:50.028Z,46.33
2023-03-13T20:00:26.431Z,56.10
2023-03-13T20:02:54.750Z,65.05
2023-03-13T20:05:23.586Z,66.70
2023-03-13T20:07:51.818Z,74.40
2023-03-13T20:10:20.632Z,79.78
2023-03-13T20:12:48.937Z,81.68
2023-03-13T20:15:17.466Z,59.70
2023-03-13T20:17:45.661Z,53.92
2023-03-13T20:20:14.053Z,48.60
2023-03-13T20:22:42.534Z,52.78
2023-03-13T20:25:11.225Z,46.05
2023-03-13T20:27:39.650Z,39.35
2023-03-13T20:30:08.565Z,42.78
2023-03-13T20:32:39.446Z,36.70
2023-03-13T20:35:14.500Z,46.20
2023-03-13T20:37:43.072Z,40.88
2023-03-13T20:40:12.080Z,46.88
2023-03-13T20:42:40.335Z,54.05
2023-03-13T20:45:11.802Z,40.07
2023-03-13T20:47:40.055Z,48.20
2023-03-13T20:50:09.304Z,37.20
2023-03-13T20:52:38.126Z,46.65
2023-03-13T20:55:06.868Z,57.58
2023-03-13T20:57:37.201Z,72.22
2023-03-13T21:00:06.122Z,80.78
2023-03-13T21:02:34.378Z,84.32
2023-03-13T21:05:02.734Z,88.72
2023-03-13T21:07:31.010Z,85.57
2023-03-13T21:09:59.293Z,86.28
2023-03-13T21:12:27.543Z,64.07
2023-03-13T21:14:55.979Z,66.28
2023-03-13T21:17:24.311Z,83.32
2023-03-13T21:19:52.751Z,51.38
2023-03-13T21:22:20.982Z,44.15
2023-03-13T21:24:49.515Z,48.58
2023-03-13T21:27:18.353Z,63.60
2023-03-13T21:29:46.753Z,50.20
2023-03-13T21:32:15.564Z,47.45
2023-03-13T21:34:43.891Z,73.57
2023-03-13T21:37:12.830Z,70.40
2023-03-13T21:39:42.359Z,99.35
2023-03-13T21:42:12.768Z,89.18
2023-03-13T21:44:41.210Z,83.38
2023-03-13T21:47:09.678Z,72.25
2023-03-13T21:49:38.152Z,61.42
2023-03-13T21:52:06.952Z,55.50
2023-03-13T21:54:35.845Z,64.22
2023-03-13T21:57:04.372Z,53.70
2023-03-13T21:59:32.630Z,75.25
2023-03-13T22:02:01.019Z,82.95
2023-03-13T22:04:29.271Z,84.03
2023-03-13T22:06:57.556Z,72.07
2023-03-13T22:09:25.945Z,66.13
2023-03-13T22:11:54.158Z,45.13
2023-03-13T22:14:22.457Z,49.30
2023-03-13T22:16:50.869Z,54.75
2023-03-13T22:19:19.090Z,55.08
2023-03-13T22:21:47.361Z,55.97
2023-03-13T22:24:15.808Z,44.38
2023-03-13T22:26:44.181Z,59.65
2023-03-13T22:29:12.547Z,52.80
2023-03-13T22:31:41.141Z,46.38
2023-03-13T22:34:09.413Z,74.38
2023-03-13T22:36:37.663Z,84.47
2023-03-13T22:39:05.920Z,71.05
2023-03-13T22:41:34.142Z,59.72
2023-03-13T22:44:02.430Z,81.15
2023-03-13T22:46:30.589Z,75.18
2023-03-13T22:48:58.842Z,90.53
2023-03-13T22:51:27.214Z,56.03
2023-03-13T22:53:55.396Z,37.00
2023-03-13T22:56:25.877Z,39.55
2023-03-13T22:58:54.880Z,51.17
2023-03-13T23:01:23.161Z,64.53
2023-03-13T23:03:51.537Z,63.22
2023-03-13T23:06:23.397Z,65.18
2023-03-13T23:08:51.751Z,70.57
2023-03-13T23:11:20.642Z,71.32
2023-03-13T23:13:49.029Z,53.08
2023-03-13T23:16:17.319Z,39.78
2023-03-13T23:18:45.944Z,43.58
2023-03-13T23:21:16.298Z,47.05
2023-03-13T23:23:44.889Z,55.22
2023-03-13T23:26:15.826Z,71.18
2023-03-13T23:28:44.090Z,81.10
2023-03-13T23:31:18.517Z,84.47
2023-03-13T23:33:48.016Z,93.47
2023-03-13T23:36:18.612Z,56.47
2023-03-13T23:38:50.809Z,37.83
2023-03-13T23:41:19.495Z,35.70
2023-03-13T23:43:47.934Z,27.40
2023-03-13T23:46:18.448Z,33.72
2023-03-13T23:48:46.870Z,30.55
2023-03-13T23:51:15.208Z,31.77
2023-03-13T23:53:44.346Z,33.90
2023-03-13T23:56:13.181Z,28.02
2023-03-13T23:58:42.285Z,27.65
